sensor_id;sensor_type;location;lat;lon;timestamp;temperature;humidity
6641;DHT22;3356;49.360;8.266;2022-10-16T00:01:43;16.70;99.90
6641;DHT22;3356;49.360;8.266;2022-10-16T00:03:45;16.70;99.90
6641;DHT22;3356;49.360;8.266;2022-10-16T00:05:46;16.70;99.90
6641;DHT22;3356;49.360;8.266;2022-10-16T00:07:47;16.70;99.90
6641;DHT22;3356;49.360;8.266;2022-10-16T00:09:48;16.80;99.90
6641;DHT22;3356;49.360;8.266;2022-10-16T00:11:49;16.80;99.90
6641;DHT22;3356;49.360;8.266;2022-10-16T00:13:54;16.70;99.90
6641;DHT22;3356;49.360;8.266;2022-10-16T00:15:57;16.70;99.90
6641;DHT22;3356;49.360;8.266;2022-10-16T00:17:58;16.60;99.90
6641;DHT22;3356;49.360;8.266;2022-10-16T00:19:59;16.60;99.90
6641;DHT22;3356;49.360;8.266;2022-10-16T00:22:00;16.60;99.90
6641;DHT22;3356;49.360;8.266;2022-10-16T00:24:06;16.70;99.90
6641;DHT22;3356;49.360;8.266;2022-10-16T00:26:13;16.60;99.90
6641;DHT22;3356;49.360;8.266;2022-10-16T00:28:15;16.60;99.90
6641;DHT22;3356;49.360;8.266;2022-10-16T00:30:16;16.60;99.90
6641;DHT22;3356;49.360;8.266;2022-10-16T00:32:20;16.50;99.90
6641;DHT22;3356;49.360;8.266;2022-10-16T00:34:21;16.50;99.90
6641;DHT22;3356;49.360;8.266;2022-10-16T00:36:25;16.60;99.90
6641;DHT22;3356;49.360;8.266;2022-10-16T00:38:26;16.60;99.90
6641;DHT22;3356;49.360;8.266;2022-10-16T00:40:27;16.60;99.90
6641;DHT22;3356;49.360;8.266;2022-10-16T00:42:29;16.60;99.90
6641;DHT22;3356;49.360;8.266;2022-10-16T00:44:46;16.60;99.90
6641;DHT22;3356;49.360;8.266;2022-10-16T00:46:48;16.60;99.90
6641;DHT22;3356;49.360;8.266;2022-10-16T00:49:09;16.60;99.90
6641;DHT22;3356;49.360;8.266;2022-10-16T00:51:11;16.60;99.90
6641;DHT22;3356;49.360;8.266;2022-10-16T00:53:12;16.60;99.90
6641;DHT22;3356;49.360;8.266;2022-10-16T00:55:14;16.60;99.90
6641;DHT22;3356;49.360;8.266;2022-10-16T00:57:15;16.60;99.90
6641;DHT22;3356;49.360;8.266;2022-10-16T00:59:24;16.60;99.90
6641;DHT22;3356;49.360;8.266;2022-10-16T01:01:26;16.60;99.90
6641;DHT22;3356;49.360;8.266;2022-10-16T01:03:33;16.60;99.90
6641;DHT22;3356;49.360;8.266;2022-10-16T01:05:48;16.70;99.90
6641;DHT22;3356;49.360;8.266;2022-10-16T01:08:12;16.70;99.90
6641;DHT22;3356;49.360;8.266;2022-10-16T01:10:37;16.70;99.90
6641;DHT22;3356;49.360;8.266;2022-10-16T01:12:50;16.60;99.90
6641;DHT22;3356;49.360;8.266;2022-10-16T01:15:10;16.70;99.90
6641;DHT22;3356;49.360;8.266;2022-10-16T01:17:20;16.70;99.90
6641;DHT22;3356;49.360;8.266;2022-10-16T01:21:39;16.70;99.90
6641;DHT22;3356;49.360;8.266;2022-10-16T01:28:34;16.50;99.90
6641;DHT22;3356;49.360;8.266;2022-10-16T01:30:37;16.50;99.90
6641;DHT22;3356;49.360;8.266;2022-10-16T01:32:45;16.50;99.90
6641;DHT22;3356;49.360;8.266;2022-10-16T01:35:01;16.50;99.90
6641;DHT22;3356;49.360;8.266;2022-10-16T01:37:09;16.50;99.90
6641;DHT22;3356;49.360;8.266;2022-10-16T01:39:13;16.50;99.90
6641;DHT22;3356;49.360;8.266;2022-10-16T01:41:23;16.50;99.90
6641;DHT22;3356;49.360;8.266;2022-10-16T01:43:31;16.50;99.90
6641;DHT22;3356;49.360;8.266;2022-10-16T01:45:35;16.50;99.90
6641;DHT22;3356;49.360;8.266;2022-10-16T01:47:37;16.50;99.90
6641;DHT22;3356;49.360;8.266;2022-10-16T01:49:40;16.50;99.90
6641;DHT22;3356;49.360;8.266;2022-10-16T01:51:45;16.50;99.90
6641;DHT22;3356;49.360;8.266;2022-10-16T01:53:51;16.50;99.90
6641;DHT22;3356;49.360;8.266;2022-10-16T01:55:55;16.50;99.90
6641;DHT22;3356;49.360;8.266;2022-10-16T01:57:59;16.50;99.90
6641;DHT22;3356;49.360;8.266;2022-10-16T02:00:06;16.50;99.90
6641;DHT22;3356;49.360;8.266;2022-10-16T02:02:15;16.50;99.90
6641;DHT22;3356;49.360;8.266;2022-10-16T02:04:39;16.50;99.90
6641;DHT22;3356;49.360;8.266;2022-10-16T02:06:43;16.50;99.90
6641;DHT22;3356;49.360;8.266;2022-10-16T02:08:44;16.50;99.90
6641;DHT22;3356;49.360;8.266;2022-10-16T02:10:45;16.50;99.90
6641;DHT22;3356;49.360;8.266;2022-10-16T02:13:21;16.50;99.90
6641;DHT22;3356;49.360;8.266;2022-10-16T02:15:20;16.50;99.90
6641;DHT22;3356;49.360;8.266;2022-10-16T02:17:21;16.50;99.90
6641;DHT22;3356;49.360;8.266;2022-10-16T02:19:22;16.50;99.90
6641;DHT22;3356;49.360;8.266;2022-10-16T02:21:30;16.50;99.90
6641;DHT22;3356;49.360;8.266;2022-10-16T02:24:02;16.50;99.90
6641;DHT22;3356;49.360;8.266;2022-10-16T02:26:07;16.50;99.90
6641;DHT22;3356;49.360;8.266;2022-10-16T02:32:55;16.40;99.90
6641;DHT22;3356;49.360;8.266;2022-10-16T02:34:59;16.40;99.90
6641;DHT22;3356;49.360;8.266;2022-10-16T02:37:01;16.40;99.90
6641;DHT22;3356;49.360;8.266;2022-10-16T02:39:05;16.30;99.90
6641;DHT22;3356;49.360;8.266;2022-10-16T02:41:07;16.40;99.90
6641;DHT22;3356;49.360;8.266;2022-10-16T02:43:08;16.40;99.90
6641;DHT22;3356;49.360;8.266;2022-10-16T02:45:11;16.40;99.90
6641;DHT22;3356;49.360;8.266;2022-10-16T02:47:12;16.30;99.90
6641;DHT22;3356;49.360;8.266;2022-10-16T02:49:13;16.30;99.90
6641;DHT22;3356;49.360;8.266;2022-10-16T02:51:14;16.30;99.90
6641;DHT22;3356;49.360;8.266;2022-10-16T02:53:15;16.30;99.90
6641;DHT22;3356;49.360;8.266;2022-10-16T02:55:16;16.30;99.90
6641;DHT22;3356;49.360;8.266;2022-10-16T02:57:18;16.30;99.90
6641;DHT22;3356;49.360;8.266;2022-10-16T02:59:19;16.30;99.90
6641;DHT22;3356;49.360;8.266;2022-10-16T03:01:20;16.30;99.90
6641;DHT22;3356;49.360;8.266;2022-10-16T03:03:21;16.30;99.90
6641;DHT22;3356;49.360;8.266;2022-10-16T03:05:22;16.20;99.90
6641;DHT22;3356;49.360;8.266;2022-10-16T03:07:23;16.20;99.90
6641;DHT22;3356;49.360;8.266;2022-10-16T03:09:25;16.20;99.90
6641;DHT22;3356;49.360;8.266;2022-10-16T03:11:26;16.20;99.90
6641;DHT22;3356;49.360;8.266;2022-10-16T03:13:27;16.20;99.90
6641;DHT22;3356;49.360;8.266;2022-10-16T03:15:28;16.20;99.90
6641;DHT22;3356;49.360;8.266;2022-10-16T03:17:29;16.20;99.90
6641;DHT22;3356;49.360;8.266;2022-10-16T03:19:32;16.30;99.90
6641;DHT22;3356;49.360;8.266;2022-10-16T03:21:33;16.20;99.90
6641;DHT22;3356;49.360;8.266;2022-10-16T03:23:34;16.30;99.90
6641;DHT22;3356;49.360;8.266;2022-10-16T03:25:35;16.30;99.90
6641;DHT22;3356;49.360;8.266;2022-10-16T03:27:36;16.20;99.90
6641;DHT22;3356;49.360;8.266;2022-10-16T03:29:37;16.20;99.90
6641;DHT22;3356;49.360;8.266;2022-10-16T03:31:39;16.20;99.90
6641;DHT22;3356;49.360;8.266;2022-10-16T03:33:40;16.20;99.90
6641;DHT22;3356;49.360;8.266;2022-10-16T03:35:42;16.20;99.90
6641;DHT22;3356;49.360;8.266;2022-10-16T03:37:43;16.20;99.90
6641;DHT22;3356;49.360;8.266;2022-10-16T03:39:44;16.20;99.90
6641;DHT22;3356;49.360;8.266;2022-10-16T03:41:45;16.10;99.90
6641;DHT22;3356;49.360;8.266;2022-10-16T03:43:47;16.10;99.90
6641;DHT22;3356;49.360;8.266;2022-10-16T03:45:50;16.10;99.90
6641;DHT22;3356;49.360;8.266;2022-10-16T03:47:52;16.10;99.90
6641;DHT22;3356;49.360;8.266;2022-10-16T03:49:53;16.10;99.90
6641;DHT22;3356;49.360;8.266;2022-10-16T03:51:54;16.10;99.90
6641;DHT22;3356;49.360;8.266;2022-10-16T03:53:55;16.10;99.90
6641;DHT22;3356;49.360;8.266;2022-10-16T03:55:56;16.10;99.90
6641;DHT22;3356;49.360;8.266;2022-10-16T03:57:57;16.10;99.90
6641;DHT22;3356;49.360;8.266;2022-10-16T03:59:58;16.10;99.90
6641;DHT22;3356;49.360;8.266;2022-10-16T04:01:59;16.10;99.90
6641;DHT22;3356;49.360;8.266;2022-10-16T04:04:00;16.10;99.90
6641;DHT22;3356;49.360;8.266;2022-10-16T04:06:02;16.10;99.90
6641;DHT22;3356;49.360;8.266;2022-10-16T04:08:03;16.10;99.90
6641;DHT22;3356;49.360;8.266;2022-10-16T04:10:05;16.10;99.90
6641;DHT22;3356;49.360;8.266;2022-10-16T04:12:06;16.10;99.90
6641;DHT22;3356;49.360;8.266;2022-10-16T04:14:07;16.10;99.90
6641;DHT22;3356;49.360;8.266;2022-10-16T04:16:08;16.10;99.90
6641;DHT22;3356;49.360;8.266;2022-10-16T04:18:09;16.10;99.90
6641;DHT22;3356;49.360;8.266;2022-10-16T04:20:10;16.10;99.90
6641;DHT22;3356;49.360;8.266;2022-10-16T04:22:11;16.10;99.90
6641;DHT22;3356;49.360;8.266;2022-10-16T04:24:12;16.10;99.90
6641;DHT22;3356;49.360;8.266;2022-10-16T04:26:13;16.00;99.90
6641;DHT22;3356;49.360;8.266;2022-10-16T04:28:15;16.00;99.90
6641;DHT22;3356;49.360;8.266;2022-10-16T04:30:16;16.00;99.90
6641;DHT22;3356;49.360;8.266;2022-10-16T04:32:17;16.00;99.90
6641;DHT22;3356;49.360;8.266;2022-10-16T04:34:18;16.10;99.90
6641;DHT22;3356;49.360;8.266;2022-10-16T04:36:19;16.00;99.90
6641;DHT22;3356;49.360;8.266;2022-10-16T04:38:20;16.10;99.90
6641;DHT22;3356;49.360;8.266;2022-10-16T04:40:21;16.10;99.90
6641;DHT22;3356;49.360;8.266;2022-10-16T04:42:22;16.00;99.90
6641;DHT22;3356;49.360;8.266;2022-10-16T04:44:24;16.00;99.90
6641;DHT22;3356;49.360;8.266;2022-10-16T04:46:25;16.00;99.90
6641;DHT22;3356;49.360;8.266;2022-10-16T04:48:26;15.90;99.90
6641;DHT22;3356;49.360;8.266;2022-10-16T04:50:27;15.90;99.90
6641;DHT22;3356;49.360;8.266;2022-10-16T04:52:40;15.90;99.90
6641;DHT22;3356;49.360;8.266;2022-10-16T04:54:41;15.90;99.90
6641;DHT22;3356;49.360;8.266;2022-10-16T04:56:42;15.90;99.90
6641;DHT22;3356;49.360;8.266;2022-10-16T04:58:47;15.90;99.90
6641;DHT22;3356;49.360;8.266;2022-10-16T05:00:48;15.90;99.90
6641;DHT22;3356;49.360;8.266;2022-10-16T05:02:50;15.90;99.90
6641;DHT22;3356;49.360;8.266;2022-10-16T05:04:52;15.90;99.90
6641;DHT22;3356;49.360;8.266;2022-10-16T05:06:53;15.90;99.90
6641;DHT22;3356;49.360;8.266;2022-10-16T05:08:54;15.90;99.90
6641;DHT22;3356;49.360;8.266;2022-10-16T05:10:55;15.90;99.90
6641;DHT22;3356;49.360;8.266;2022-10-16T05:12:56;15.90;99.90
6641;DHT22;3356;49.360;8.266;2022-10-16T05:14:57;15.90;99.90
6641;DHT22;3356;49.360;8.266;2022-10-16T05:17:00;15.90;99.90
6641;DHT22;3356;49.360;8.266;2022-10-16T05:19:01;15.90;99.90
6641;DHT22;3356;49.360;8.266;2022-10-16T05:21:02;15.90;99.90
6641;DHT22;3356;49.360;8.266;2022-10-16T05:23:03;15.90;99.90
6641;DHT22;3356;49.360;8.266;2022-10-16T05:25:05;15.90;99.90
6641;DHT22;3356;49.360;8.266;2022-10-16T05:27:06;15.90;99.90
6641;DHT22;3356;49.360;8.266;2022-10-16T05:29:07;15.90;99.90
6641;DHT22;3356;49.360;8.266;2022-10-16T05:31:09;15.90;99.90
6641;DHT22;3356;49.360;8.266;2022-10-16T05:33:10;15.90;99.90
6641;DHT22;3356;49.360;8.266;2022-10-16T05:35:11;15.90;99.90
6641;DHT22;3356;49.360;8.266;2022-10-16T05:37:12;15.90;99.90
6641;DHT22;3356;49.360;8.266;2022-10-16T05:39:15;15.90;99.90
6641;DHT22;3356;49.360;8.266;2022-10-16T05:41:16;15.90;99.90
6641;DHT22;3356;49.360;8.266;2022-10-16T05:43:22;15.90;99.90
6641;DHT22;3356;49.360;8.266;2022-10-16T05:45:23;15.90;99.90
6641;DHT22;3356;49.360;8.266;2022-10-16T05:47:24;15.90;99.90
6641;DHT22;3356;49.360;8.266;2022-10-16T05:49:25;15.90;99.90
6641;DHT22;3356;49.360;8.266;2022-10-16T05:51:26;15.90;99.90
6641;DHT22;3356;49.360;8.266;2022-10-16T05:53:29;15.90;99.90
6641;DHT22;3356;49.360;8.266;2022-10-16T05:55:31;15.90;99.90
6641;DHT22;3356;49.360;8.266;2022-10-16T05:57:32;15.90;99.90
6641;DHT22;3356;49.360;8.266;2022-10-16T05:59:33;15.90;99.90
6641;DHT22;3356;49.360;8.266;2022-10-16T06:01:34;15.90;99.90
6641;DHT22;3356;49.360;8.266;2022-10-16T06:03:36;15.80;99.90
6641;DHT22;3356;49.360;8.266;2022-10-16T06:05:37;15.80;99.90
6641;DHT22;3356;49.360;8.266;2022-10-16T06:07:39;15.90;99.90
6641;DHT22;3356;49.360;8.266;2022-10-16T06:09:40;15.90;99.90
6641;DHT22;3356;49.360;8.266;2022-10-16T06:11:41;15.90;99.90
6641;DHT22;3356;49.360;8.266;2022-10-16T06:13:42;15.90;99.90
6641;DHT22;3356;49.360;8.266;2022-10-16T06:15:43;15.90;99.90
6641;DHT22;3356;49.360;8.266;2022-10-16T06:17:44;15.90;99.90
6641;DHT22;3356;49.360;8.266;2022-10-16T06:19:45;15.90;99.90
6641;DHT22;3356;49.360;8.266;2022-10-16T06:21:47;15.90;99.90
6641;DHT22;3356;49.360;8.266;2022-10-16T06:23:48;15.90;99.90
6641;DHT22;3356;49.360;8.266;2022-10-16T06:25:49;15.90;99.90
6641;DHT22;3356;49.360;8.266;2022-10-16T06:27:51;15.90;99.90
6641;DHT22;3356;49.360;8.266;2022-10-16T06:29:52;16.00;99.90
6641;DHT22;3356;49.360;8.266;2022-10-16T06:31:53;16.00;99.90
6641;DHT22;3356;49.360;8.266;2022-10-16T06:33:54;15.90;99.90
6641;DHT22;3356;49.360;8.266;2022-10-16T06:36:01;16.00;99.90
6641;DHT22;3356;49.360;8.266;2022-10-16T06:38:03;16.00;99.90
6641;DHT22;3356;49.360;8.266;2022-10-16T06:40:05;16.00;99.90
6641;DHT22;3356;49.360;8.266;2022-10-16T06:42:06;16.00;99.90
6641;DHT22;3356;49.360;8.266;2022-10-16T06:44:10;16.00;99.90
6641;DHT22;3356;49.360;8.266;2022-10-16T06:46:13;16.00;99.90
6641;DHT22;3356;49.360;8.266;2022-10-16T06:48:14;16.10;99.90
6641;DHT22;3356;49.360;8.266;2022-10-16T06:50:15;16.10;99.90
6641;DHT22;3356;49.360;8.266;2022-10-16T06:52:16;16.10;99.90
6641;DHT22;3356;49.360;8.266;2022-10-16T06:54:18;16.10;99.90
6641;DHT22;3356;49.360;8.266;2022-10-16T06:56:21;16.10;99.90
6641;DHT22;3356;49.360;8.266;2022-10-16T06:58:23;16.20;99.90
6641;DHT22;3356;49.360;8.266;2022-10-16T07:00:24;16.20;99.90
6641;DHT22;3356;49.360;8.266;2022-10-16T07:02:25;16.20;99.90
6641;DHT22;3356;49.360;8.266;2022-10-16T07:04:26;16.20;99.90
6641;DHT22;3356;49.360;8.266;2022-10-16T07:06:31;16.20;99.90
6641;DHT22;3356;49.360;8.266;2022-10-16T07:08:37;16.30;99.90
6641;DHT22;3356;49.360;8.266;2022-10-16T07:10:38;16.40;99.90
6641;DHT22;3356;49.360;8.266;2022-10-16T07:12:40;16.40;99.90
6641;DHT22;3356;49.360;8.266;2022-10-16T07:14:41;16.50;99.90
6641;DHT22;3356;49.360;8.266;2022-10-16T07:16:42;16.60;99.90
6641;DHT22;3356;49.360;8.266;2022-10-16T07:18:44;16.70;99.90
6641;DHT22;3356;49.360;8.266;2022-10-16T07:20:47;16.60;99.90
6641;DHT22;3356;49.360;8.266;2022-10-16T07:22:48;16.60;99.90
6641;DHT22;3356;49.360;8.266;2022-10-16T07:24:49;16.60;99.90
6641;DHT22;3356;49.360;8.266;2022-10-16T07:26:52;16.60;99.90
6641;DHT22;3356;49.360;8.266;2022-10-16T07:28:53;16.60;99.90
6641;DHT22;3356;49.360;8.266;2022-10-16T07:30:54;16.60;99.90
6641;DHT22;3356;49.360;8.266;2022-10-16T07:32:56;16.60;99.90
6641;DHT22;3356;49.360;8.266;2022-10-16T07:34:57;16.60;99.90
6641;DHT22;3356;49.360;8.266;2022-10-16T07:36:58;16.60;99.90
6641;DHT22;3356;49.360;8.266;2022-10-16T07:38:59;16.70;99.90
6641;DHT22;3356;49.360;8.266;2022-10-16T07:41:03;16.70;99.90
6641;DHT22;3356;49.360;8.266;2022-10-16T07:43:04;16.70;99.90
6641;DHT22;3356;49.360;8.266;2022-10-16T07:45:06;16.80;99.90
6641;DHT22;3356;49.360;8.266;2022-10-16T07:47:08;16.90;99.90
6641;DHT22;3356;49.360;8.266;2022-10-16T07:49:09;16.80;99.90
6641;DHT22;3356;49.360;8.266;2022-10-16T07:51:11;16.90;99.90
6641;DHT22;3356;49.360;8.266;2022-10-16T07:53:13;16.90;99.90
6641;DHT22;3356;49.360;8.266;2022-10-16T07:55:14;16.80;99.90
6641;DHT22;3356;49.360;8.266;2022-10-16T07:57:15;16.80;99.90
6641;DHT22;3356;49.360;8.266;2022-10-16T07:59:20;16.80;99.90
6641;DHT22;3356;49.360;8.266;2022-10-16T08:01:21;16.80;99.90
6641;DHT22;3356;49.360;8.266;2022-10-16T08:03:23;16.90;99.90
6641;DHT22;3356;49.360;8.266;2022-10-16T08:05:24;16.90;99.90
6641;DHT22;3356;49.360;8.266;2022-10-16T08:07:25;16.80;99.90
6641;DHT22;3356;49.360;8.266;2022-10-16T08:09:26;16.80;99.90
6641;DHT22;3356;49.360;8.266;2022-10-16T08:11:27;16.80;99.90
6641;DHT22;3356;49.360;8.266;2022-10-16T08:13:28;16.80;99.90
6641;DHT22;3356;49.360;8.266;2022-10-16T08:15:30;16.80;99.90
6641;DHT22;3356;49.360;8.266;2022-10-16T08:17:31;16.80;99.90
6641;DHT22;3356;49.360;8.266;2022-10-16T08:19:32;16.90;99.90
6641;DHT22;3356;49.360;8.266;2022-10-16T08:26:07;17.50;99.90
6641;DHT22;3356;49.360;8.266;2022-10-16T08:28:10;17.60;99.90
6641;DHT22;3356;49.360;8.266;2022-10-16T08:30:12;17.80;99.90
6641;DHT22;3356;49.360;8.266;2022-10-16T08:32:13;17.90;99.90
6641;DHT22;3356;49.360;8.266;2022-10-16T08:34:14;18.00;99.90
6641;DHT22;3356;49.360;8.266;2022-10-16T08:36:16;18.20;99.90
6641;DHT22;3356;49.360;8.266;2022-10-16T08:38:17;18.60;99.90
6641;DHT22;3356;49.360;8.266;2022-10-16T08:40:29;19.00;99.90
6641;DHT22;3356;49.360;8.266;2022-10-16T08:43:05;19.30;99.90
6641;DHT22;3356;49.360;8.266;2022-10-16T08:45:31;19.40;99.90
6641;DHT22;3356;49.360;8.266;2022-10-16T08:49:56;20.00;99.90
6641;DHT22;3356;49.360;8.266;2022-10-16T08:51:58;20.20;99.90
6641;DHT22;3356;49.360;8.266;2022-10-16T08:54:02;20.00;99.90
6641;DHT22;3356;49.360;8.266;2022-10-16T08:56:04;19.80;99.90
6641;DHT22;3356;49.360;8.266;2022-10-16T08:58:13;19.60;99.90
6641;DHT22;3356;49.360;8.266;2022-10-16T09:00:15;19.50;99.90
6641;DHT22;3356;49.360;8.266;2022-10-16T09:16:57;20.60;99.90
6641;DHT22;3356;49.360;8.266;2022-10-16T09:19:13;20.80;99.90
6641;DHT22;3356;49.360;8.266;2022-10-16T09:21:21;21.10;99.90
6641;DHT22;3356;49.360;8.266;2022-10-16T09:23:33;21.30;99.90
6641;DHT22;3356;49.360;8.266;2022-10-16T09:25:38;21.30;99.90
6641;DHT22;3356;49.360;8.266;2022-10-16T09:27:40;21.30;99.90
6641;DHT22;3356;49.360;8.266;2022-10-16T09:29:42;21.10;99.90
6641;DHT22;3356;49.360;8.266;2022-10-16T09:31:44;21.10;99.90
6641;DHT22;3356;49.360;8.266;2022-10-16T09:33:52;21.10;99.90
6641;DHT22;3356;49.360;8.266;2022-10-16T09:35:56;21.10;99.90
6641;DHT22;3356;49.360;8.266;2022-10-16T09:37:59;21.10;99.90
6641;DHT22;3356;49.360;8.266;2022-10-16T09:40:00;21.20;99.90
6641;DHT22;3356;49.360;8.266;2022-10-16T09:42:01;21.20;99.90
6641;DHT22;3356;49.360;8.266;2022-10-16T09:44:13;21.20;99.90
6641;DHT22;3356;49.360;8.266;2022-10-16T09:46:34;21.20;99.90
6641;DHT22;3356;49.360;8.266;2022-10-16T09:48:43;21.20;99.90
6641;DHT22;3356;49.360;8.266;2022-10-16T09:50:56;21.20;99.90
6641;DHT22;3356;49.360;8.266;2022-10-16T09:53:13;21.40;99.90
6641;DHT22;3356;49.360;8.266;2022-10-16T09:55:17;21.50;99.90
6641;DHT22;3356;49.360;8.266;2022-10-16T09:57:19;21.60;99.90
6641;DHT22;3356;49.360;8.266;2022-10-16T09:59:22;21.60;99.90
6641;DHT22;3356;49.360;8.266;2022-10-16T10:01:38;21.50;99.90
6641;DHT22;3356;49.360;8.266;2022-10-16T10:03:41;21.60;99.90
6641;DHT22;3356;49.360;8.266;2022-10-16T10:05:48;21.60;99.90
6641;DHT22;3356;49.360;8.266;2022-10-16T10:08:12;21.70;99.90
6641;DHT22;3356;49.360;8.266;2022-10-16T10:10:29;21.60;99.90
6641;DHT22;3356;49.360;8.266;2022-10-16T10:12:32;21.60;99.90
6641;DHT22;3356;49.360;8.266;2022-10-16T10:14:38;21.70;99.90
6641;DHT22;3356;49.360;8.266;2022-10-16T10:16:41;21.70;99.90
6641;DHT22;3356;49.360;8.266;2022-10-16T10:18:42;21.90;99.90
6641;DHT22;3356;49.360;8.266;2022-10-16T10:20:43;22.30;99.90
6641;DHT22;3356;49.360;8.266;2022-10-16T10:22:45;22.60;99.90
6641;DHT22;3356;49.360;8.266;2022-10-16T10:27:15;23.20;99.90
6641;DHT22;3356;49.360;8.266;2022-10-16T10:32:14;23.50;99.90
6641;DHT22;3356;49.360;8.266;2022-10-16T10:34:37;23.60;99.90
6641;DHT22;3356;49.360;8.266;2022-10-16T10:36:41;23.70;99.90
6641;DHT22;3356;49.360;8.266;2022-10-16T10:46:02;24.10;99.90
6641;DHT22;3356;49.360;8.266;2022-10-16T10:59:57;23.80;99.90
6641;DHT22;3356;49.360;8.266;2022-10-16T11:02:31;23.80;99.90
6641;DHT22;3356;49.360;8.266;2022-10-16T11:04:53;23.80;99.90
6641;DHT22;3356;49.360;8.266;2022-10-16T11:07:04;23.70;99.90
6641;DHT22;3356;49.360;8.266;2022-10-16T11:09:13;23.70;99.90
6641;DHT22;3356;49.360;8.266;2022-10-16T11:14:00;23.60;99.90
6641;DHT22;3356;49.360;8.266;2022-10-16T11:20:49;23.50;99.90
6641;DHT22;3356;49.360;8.266;2022-10-16T11:22:56;23.50;99.90
6641;DHT22;3356;49.360;8.266;2022-10-16T11:25:29;23.50;99.90
6641;DHT22;3356;49.360;8.266;2022-10-16T11:27:43;23.50;99.90
6641;DHT22;3356;49.360;8.266;2022-10-16T11:30:00;23.50;99.90
6641;DHT22;3356;49.360;8.266;2022-10-16T11:32:18;23.40;99.90
6641;DHT22;3356;49.360;8.266;2022-10-16T11:34:48;23.50;99.90
6641;DHT22;3356;49.360;8.266;2022-10-16T11:39:34;23.70;99.90
6641;DHT22;3356;49.360;8.266;2022-10-16T11:49:21;24.10;99.90
6641;DHT22;3356;49.360;8.266;2022-10-16T11:51:40;24.10;99.90
6641;DHT22;3356;49.360;8.266;2022-10-16T11:53:50;24.20;99.90
6641;DHT22;3356;49.360;8.266;2022-10-16T11:55:52;24.20;99.90
6641;DHT22;3356;49.360;8.266;2022-10-16T11:57:58;24.20;99.90
6641;DHT22;3356;49.360;8.266;2022-10-16T12:00:14;24.00;99.90
6641;DHT22;3356;49.360;8.266;2022-10-16T12:04:34;23.80;99.90
6641;DHT22;3356;49.360;8.266;2022-10-16T12:06:47;24.80;99.90
6641;DHT22;3356;49.360;8.266;2022-10-16T12:08:51;23.90;99.90
6641;DHT22;3356;49.360;8.266;2022-10-16T12:10:53;23.90;99.90
6641;DHT22;3356;49.360;8.266;2022-10-16T12:12:56;23.90;99.90
6641;DHT22;3356;49.360;8.266;2022-10-16T12:15:21;24.00;99.90
6641;DHT22;3356;49.360;8.266;2022-10-16T12:17:26;24.00;99.90
6641;DHT22;3356;49.360;8.266;2022-10-16T12:19:30;23.90;99.90
6641;DHT22;3356;49.360;8.266;2022-10-16T12:21:32;23.90;99.90
6641;DHT22;3356;49.360;8.266;2022-10-16T12:23:38;23.90;99.90
6641;DHT22;3356;49.360;8.266;2022-10-16T12:25:40;23.90;99.90
6641;DHT22;3356;49.360;8.266;2022-10-16T12:27:54;23.80;99.90
6641;DHT22;3356;49.360;8.266;2022-10-16T12:30:02;23.70;99.90
6641;DHT22;3356;49.360;8.266;2022-10-16T12:34:36;23.60;99.90
6641;DHT22;3356;49.360;8.266;2022-10-16T12:36:37;23.60;99.90
6641;DHT22;3356;49.360;8.266;2022-10-16T12:38:47;23.60;99.90
6641;DHT22;3356;49.360;8.266;2022-10-16T12:41:06;23.70;99.90
6641;DHT22;3356;49.360;8.266;2022-10-16T12:45:25;23.60;99.90
6641;DHT22;3356;49.360;8.266;2022-10-16T12:49:37;23.80;99.90
6641;DHT22;3356;49.360;8.266;2022-10-16T12:51:40;23.60;99.90
6641;DHT22;3356;49.360;8.266;2022-10-16T12:53:41;23.50;99.90
6641;DHT22;3356;49.360;8.266;2022-10-16T12:58:09;23.50;99.90
6641;DHT22;3356;49.360;8.266;2022-10-16T13:02:51;23.30;99.90
6641;DHT22;3356;49.360;8.266;2022-10-16T13:15:27;23.00;99.90
6641;DHT22;3356;49.360;8.266;2022-10-16T13:17:53;22.90;99.90
6641;DHT22;3356;49.360;8.266;2022-10-16T13:29:02;22.90;99.90
6641;DHT22;3356;49.360;8.266;2022-10-16T13:31:03;22.90;99.90
6641;DHT22;3356;49.360;8.266;2022-10-16T13:33:17;22.90;99.90
6641;DHT22;3356;49.360;8.266;2022-10-16T13:35:25;23.00;99.90
6641;DHT22;3356;49.360;8.266;2022-10-16T13:37:26;23.00;99.90
6641;DHT22;3356;49.360;8.266;2022-10-16T13:39:30;22.90;99.90
6641;DHT22;3356;49.360;8.266;2022-10-16T13:41:31;22.90;99.90
6641;DHT22;3356;49.360;8.266;2022-10-16T13:43:41;22.90;99.90
6641;DHT22;3356;49.360;8.266;2022-10-16T13:46:03;23.00;99.90
6641;DHT22;3356;49.360;8.266;2022-10-16T13:48:06;23.00;99.90
6641;DHT22;3356;49.360;8.266;2022-10-16T13:50:13;22.90;99.90
6641;DHT22;3356;49.360;8.266;2022-10-16T13:52:20;22.90;99.90
6641;DHT22;3356;49.360;8.266;2022-10-16T13:54:22;22.80;99.90
6641;DHT22;3356;49.360;8.266;2022-10-16T13:56:29;22.80;99.90
6641;DHT22;3356;49.360;8.266;2022-10-16T13:58:31;22.70;99.90
6641;DHT22;3356;49.360;8.266;2022-10-16T14:00:32;22.70;99.90
6641;DHT22;3356;49.360;8.266;2022-10-16T14:02:35;22.70;99.90
6641;DHT22;3356;49.360;8.266;2022-10-16T14:04:39;22.60;99.90
6641;DHT22;3356;49.360;8.266;2022-10-16T14:06:44;22.60;99.90
6641;DHT22;3356;49.360;8.266;2022-10-16T14:08:50;22.60;99.90
6641;DHT22;3356;49.360;8.266;2022-10-16T14:10:57;22.50;99.90
6641;DHT22;3356;49.360;8.266;2022-10-16T14:13:01;22.50;99.90
6641;DHT22;3356;49.360;8.266;2022-10-16T14:15:03;22.50;99.90
6641;DHT22;3356;49.360;8.266;2022-10-16T14:17:05;22.40;99.90
6641;DHT22;3356;49.360;8.266;2022-10-16T14:19:06;22.40;99.90
6641;DHT22;3356;49.360;8.266;2022-10-16T14:21:15;22.30;99.90
6641;DHT22;3356;49.360;8.266;2022-10-16T14:23:30;22.30;99.90
6641;DHT22;3356;49.360;8.266;2022-10-16T14:25:32;22.30;99.90
6641;DHT22;3356;49.360;8.266;2022-10-16T14:27:35;22.20;99.90
6641;DHT22;3356;49.360;8.266;2022-10-16T14:29:37;22.20;99.90
6641;DHT22;3356;49.360;8.266;2022-10-16T14:31:38;22.20;99.90
6641;DHT22;3356;49.360;8.266;2022-10-16T14:33:40;22.10;99.90
6641;DHT22;3356;49.360;8.266;2022-10-16T14:35:41;22.10;99.90
6641;DHT22;3356;49.360;8.266;2022-10-16T14:37:44;22.10;99.90
6641;DHT22;3356;49.360;8.266;2022-10-16T14:39:49;22.10;99.90
6641;DHT22;3356;49.360;8.266;2022-10-16T14:41:52;22.10;99.90
6641;DHT22;3356;49.360;8.266;2022-10-16T14:44:04;22.10;99.90
6641;DHT22;3356;49.360;8.266;2022-10-16T14:46:13;22.20;99.90
6641;DHT22;3356;49.360;8.266;2022-10-16T14:48:17;22.20;99.90
6641;DHT22;3356;49.360;8.266;2022-10-16T14:50:19;22.10;99.90
6641;DHT22;3356;49.360;8.266;2022-10-16T14:52:20;22.10;99.90
6641;DHT22;3356;49.360;8.266;2022-10-16T14:54:21;22.10;99.90
6641;DHT22;3356;49.360;8.266;2022-10-16T14:56:25;22.10;99.90
6641;DHT22;3356;49.360;8.266;2022-10-16T14:58:27;22.00;99.90
6641;DHT22;3356;49.360;8.266;2022-10-16T15:00:28;22.10;99.90
6641;DHT22;3356;49.360;8.266;2022-10-16T15:02:33;22.00;99.90
6641;DHT22;3356;49.360;8.266;2022-10-16T15:04:35;22.00;99.90
6641;DHT22;3356;49.360;8.266;2022-10-16T15:06:36;21.90;99.90
6641;DHT22;3356;49.360;8.266;2022-10-16T15:08:37;21.90;99.90
6641;DHT22;3356;49.360;8.266;2022-10-16T15:10:41;21.80;99.90
6641;DHT22;3356;49.360;8.266;2022-10-16T15:12:43;21.80;99.90
6641;DHT22;3356;49.360;8.266;2022-10-16T15:14:44;21.80;99.90
6641;DHT22;3356;49.360;8.266;2022-10-16T15:16:45;21.70;99.90
6641;DHT22;3356;49.360;8.266;2022-10-16T15:18:46;21.80;99.90
6641;DHT22;3356;49.360;8.266;2022-10-16T15:20:49;21.70;99.90
6641;DHT22;3356;49.360;8.266;2022-10-16T15:22:51;21.70;99.90